sensor_id;sensor_type;location;lat;lon;timestamp;temperature;humidity
56725;DHT22;42608;52.776;6.968;2022-12-18T00:03:47;-3.40;99.90
56725;DHT22;42608;52.776;6.968;2022-12-18T00:06:13;-3.40;99.90
56725;DHT22;42608;52.776;6.968;2022-12-18T00:08:39;-3.40;99.90
56725;DHT22;42608;52.776;6.968;2022-12-18T00:11:10;-3.40;99.90
56725;DHT22;42608;52.776;6.968;2022-12-18T00:13:36;-3.50;99.90
56725;DHT22;42608;52.776;6.968;2022-12-18T00:16:02;-3.50;99.90
56725;DHT22;42608;52.776;6.968;2022-12-18T00:18:28;-3.50;99.90
56725;DHT22;42608;52.776;6.968;2022-12-18T00:20:53;-3.50;99.90
56725;DHT22;42608;52.776;6.968;2022-12-18T00:23:19;-3.50;99.90
56725;DHT22;42608;52.776;6.968;2022-12-18T00:25:44;-3.60;99.90
56725;DHT22;42608;52.776;6.968;2022-12-18T00:28:10;-3.60;99.90
56725;DHT22;42608;52.776;6.968;2022-12-18T00:30:35;-3.60;99.90
56725;DHT22;42608;52.776;6.968;2022-12-18T00:33:01;-3.60;99.90
56725;DHT22;42608;52.776;6.968;2022-12-18T00:35:27;-3.60;99.90
56725;DHT22;42608;52.776;6.968;2022-12-18T00:37:52;-3.60;99.90
56725;DHT22;42608;52.776;6.968;2022-12-18T00:40:18;-3.70;99.90
56725;DHT22;42608;52.776;6.968;2022-12-18T00:42:44;-3.70;99.90
56725;DHT22;42608;52.776;6.968;2022-12-18T00:45:22;-3.70;99.90
56725;DHT22;42608;52.776;6.968;2022-12-18T00:47:48;-3.70;99.90
56725;DHT22;42608;52.776;6.968;2022-12-18T00:50:14;-3.80;99.90
56725;DHT22;42608;52.776;6.968;2022-12-18T00:52:39;-3.80;99.90
56725;DHT22;42608;52.776;6.968;2022-12-18T00:55:05;-3.80;99.90
56725;DHT22;42608;52.776;6.968;2022-12-18T00:57:30;-3.90;99.90
56725;DHT22;42608;52.776;6.968;2022-12-18T00:59:56;-3.90;99.90
56725;DHT22;42608;52.776;6.968;2022-12-18T01:02:22;-3.90;99.90
56725;DHT22;42608;52.776;6.968;2022-12-18T01:04:48;-3.90;99.90
56725;DHT22;42608;52.776;6.968;2022-12-18T01:07:13;-3.90;99.90
56725;DHT22;42608;52.776;6.968;2022-12-18T01:09:39;-3.90;99.90
56725;DHT22;42608;52.776;6.968;2022-12-18T01:12:05;-4.00;99.90
56725;DHT22;42608;52.776;6.968;2022-12-18T01:14:30;-4.00;99.90
56725;DHT22;42608;52.776;6.968;2022-12-18T01:16:56;-4.00;99.90
56725;DHT22;42608;52.776;6.968;2022-12-18T01:19:21;-4.10;99.90
56725;DHT22;42608;52.776;6.968;2022-12-18T01:21:47;-4.10;99.90
56725;DHT22;42608;52.776;6.968;2022-12-18T01:24:13;-4.10;99.90
56725;DHT22;42608;52.776;6.968;2022-12-18T01:26:38;-4.20;99.90
56725;DHT22;42608;52.776;6.968;2022-12-18T01:29:04;-4.20;99.90
56725;DHT22;42608;52.776;6.968;2022-12-18T01:31:30;-4.20;99.90
56725;DHT22;42608;52.776;6.968;2022-12-18T01:33:57;-4.30;99.90
56725;DHT22;42608;52.776;6.968;2022-12-18T01:36:27;-4.30;99.90
56725;DHT22;42608;52.776;6.968;2022-12-18T01:38:53;-4.40;99.90
56725;DHT22;42608;52.776;6.968;2022-12-18T01:41:20;-4.40;99.90
56725;DHT22;42608;52.776;6.968;2022-12-18T01:43:48;-4.40;99.90
56725;DHT22;42608;52.776;6.968;2022-12-18T01:46:14;-4.50;99.90
56725;DHT22;42608;52.776;6.968;2022-12-18T01:48:42;-4.50;99.90
56725;DHT22;42608;52.776;6.968;2022-12-18T01:51:10;-4.50;99.90
56725;DHT22;42608;52.776;6.968;2022-12-18T01:53:37;-4.60;99.90
56725;DHT22;42608;52.776;6.968;2022-12-18T01:56:03;-4.70;99.90
56725;DHT22;42608;52.776;6.968;2022-12-18T02:00:57;-4.70;99.90
56725;DHT22;42608;52.776;6.968;2022-12-18T02:03:22;-4.80;99.90
56725;DHT22;42608;52.776;6.968;2022-12-18T02:08:29;-4.80;99.90
56725;DHT22;42608;52.776;6.968;2022-12-18T02:18:45;-4.90;99.90
56725;DHT22;42608;52.776;6.968;2022-12-18T02:26:16;-5.00;99.90
56725;DHT22;42608;52.776;6.968;2022-12-18T02:28:47;-5.00;99.90
56725;DHT22;42608;52.776;6.968;2022-12-18T02:31:16;-5.00;99.90
56725;DHT22;42608;52.776;6.968;2022-12-18T02:33:44;-5.00;99.90
56725;DHT22;42608;52.776;6.968;2022-12-18T02:36:11;-5.00;99.90
56725;DHT22;42608;52.776;6.968;2022-12-18T02:38:38;-5.00;99.90
56725;DHT22;42608;52.776;6.968;2022-12-18T02:41:04;-5.00;99.90
56725;DHT22;42608;52.776;6.968;2022-12-18T02:43:30;-5.00;99.90
56725;DHT22;42608;52.776;6.968;2022-12-18T02:45:57;-5.10;99.90
56725;DHT22;42608;52.776;6.968;2022-12-18T02:48:31;-5.10;99.90
56725;DHT22;42608;52.776;6.968;2022-12-18T02:51:08;-5.10;99.90
56725;DHT22;42608;52.776;6.968;2022-12-18T02:53:43;-5.20;99.90
56725;DHT22;42608;52.776;6.968;2022-12-18T02:58:43;-5.20;99.90
56725;DHT22;42608;52.776;6.968;2022-12-18T03:03:55;-5.20;99.90
56725;DHT22;42608;52.776;6.968;2022-12-18T03:08:53;-5.20;99.90
56725;DHT22;42608;52.776;6.968;2022-12-18T03:11:19;-5.20;99.90
56725;DHT22;42608;52.776;6.968;2022-12-18T03:14:05;-5.20;99.90
56725;DHT22;42608;52.776;6.968;2022-12-18T03:16:32;-5.20;99.90
56725;DHT22;42608;52.776;6.968;2022-12-18T03:19:03;-5.20;99.90
56725;DHT22;42608;52.776;6.968;2022-12-18T03:21:32;-5.20;99.90
56725;DHT22;42608;52.776;6.968;2022-12-18T03:23:59;-5.20;99.90
56725;DHT22;42608;52.776;6.968;2022-12-18T03:26:25;-5.30;99.90
56725;DHT22;42608;52.776;6.968;2022-12-18T03:28:57;-5.30;99.90
56725;DHT22;42608;52.776;6.968;2022-12-18T03:31:25;-5.40;99.90
56725;DHT22;42608;52.776;6.968;2022-12-18T03:33:53;-5.40;99.90
56725;DHT22;42608;52.776;6.968;2022-12-18T03:36:19;-5.50;99.90
56725;DHT22;42608;52.776;6.968;2022-12-18T03:38:45;-5.50;99.90
56725;DHT22;42608;52.776;6.968;2022-12-18T03:41:31;-5.50;99.90
56725;DHT22;42608;52.776;6.968;2022-12-18T03:44:11;-5.60;99.90
56725;DHT22;42608;52.776;6.968;2022-12-18T03:46:45;-5.60;99.90
56725;DHT22;42608;52.776;6.968;2022-12-18T03:49:32;-5.60;99.90
56725;DHT22;42608;52.776;6.968;2022-12-18T03:52:09;-5.60;99.90
56725;DHT22;42608;52.776;6.968;2022-12-18T03:54:36;-5.60;99.90
56725;DHT22;42608;52.776;6.968;2022-12-18T03:57:06;-5.60;99.90
56725;DHT22;42608;52.776;6.968;2022-12-18T03:59:33;-5.60;99.90
56725;DHT22;42608;52.776;6.968;2022-12-18T04:02:00;-5.60;99.90
56725;DHT22;42608;52.776;6.968;2022-12-18T04:04:27;-5.70;99.90
56725;DHT22;42608;52.776;6.968;2022-12-18T04:06:53;-5.70;99.90
56725;DHT22;42608;52.776;6.968;2022-12-18T04:09:19;-5.70;99.90
56725;DHT22;42608;52.776;6.968;2022-12-18T04:11:45;-5.70;99.90
56725;DHT22;42608;52.776;6.968;2022-12-18T04:14:11;-5.70;99.90
56725;DHT22;42608;52.776;6.968;2022-12-18T04:16:37;-5.70;99.90
56725;DHT22;42608;52.776;6.968;2022-12-18T04:19:02;-5.70;99.90
56725;DHT22;42608;52.776;6.968;2022-12-18T04:21:28;-5.80;99.90
56725;DHT22;42608;52.776;6.968;2022-12-18T04:23:54;-5.80;99.90
56725;DHT22;42608;52.776;6.968;2022-12-18T04:26:19;-5.80;99.90
56725;DHT22;42608;52.776;6.968;2022-12-18T04:28:45;-5.80;99.90
56725;DHT22;42608;52.776;6.968;2022-12-18T04:31:11;-5.80;99.90
56725;DHT22;42608;52.776;6.968;2022-12-18T04:33:36;-5.90;99.90
56725;DHT22;42608;52.776;6.968;2022-12-18T04:36:02;-5.90;99.90
56725;DHT22;42608;52.776;6.968;2022-12-18T04:38:28;-6.00;99.90
56725;DHT22;42608;52.776;6.968;2022-12-18T04:40:53;-6.00;99.90
56725;DHT22;42608;52.776;6.968;2022-12-18T04:43:19;-6.00;99.90
56725;DHT22;42608;52.776;6.968;2022-12-18T04:45:45;-6.00;99.90
56725;DHT22;42608;52.776;6.968;2022-12-18T04:48:10;-6.00;99.90
56725;DHT22;42608;52.776;6.968;2022-12-18T04:50:36;-6.00;99.90
56725;DHT22;42608;52.776;6.968;2022-12-18T04:53:01;-6.10;99.90
56725;DHT22;42608;52.776;6.968;2022-12-18T04:55:27;-6.10;99.90
56725;DHT22;42608;52.776;6.968;2022-12-18T04:57:52;-6.00;99.90
56725;DHT22;42608;52.776;6.968;2022-12-18T05:00:18;-6.00;99.90
56725;DHT22;42608;52.776;6.968;2022-12-18T05:02:44;-6.00;99.90
56725;DHT22;42608;52.776;6.968;2022-12-18T05:05:10;-6.00;99.90
56725;DHT22;42608;52.776;6.968;2022-12-18T05:07:35;-6.00;99.90
56725;DHT22;42608;52.776;6.968;2022-12-18T05:10:01;-6.00;99.90
56725;DHT22;42608;52.776;6.968;2022-12-18T05:12:26;-6.00;99.90
56725;DHT22;42608;52.776;6.968;2022-12-18T05:14:52;-6.00;99.90
56725;DHT22;42608;52.776;6.968;2022-12-18T05:17:18;-6.00;99.90
56725;DHT22;42608;52.776;6.968;2022-12-18T05:19:43;-6.00;99.90
56725;DHT22;42608;52.776;6.968;2022-12-18T05:22:09;-6.00;99.90
56725;DHT22;42608;52.776;6.968;2022-12-18T05:24:34;-6.00;99.90
56725;DHT22;42608;52.776;6.968;2022-12-18T05:27:00;-6.00;99.90
56725;DHT22;42608;52.776;6.968;2022-12-18T05:29:26;-6.00;99.90
56725;DHT22;42608;52.776;6.968;2022-12-18T05:31:52;-6.00;99.90
56725;DHT22;42608;52.776;6.968;2022-12-18T05:34:17;-6.10;99.90
56725;DHT22;42608;52.776;6.968;2022-12-18T05:36:43;-6.10;99.90
56725;DHT22;42608;52.776;6.968;2022-12-18T05:39:08;-6.10;99.90
56725;DHT22;42608;52.776;6.968;2022-12-18T05:41:34;-6.10;99.90
56725;DHT22;42608;52.776;6.968;2022-12-18T05:43:59;-6.10;99.90
56725;DHT22;42608;52.776;6.968;2022-12-18T05:46:25;-6.10;99.90
56725;DHT22;42608;52.776;6.968;2022-12-18T05:48:51;-6.10;99.90
56725;DHT22;42608;52.776;6.968;2022-12-18T05:51:18;-6.10;99.90
56725;DHT22;42608;52.776;6.968;2022-12-18T05:53:44;-6.10;99.90
56725;DHT22;42608;52.776;6.968;2022-12-18T05:56:11;-6.10;99.90
56725;DHT22;42608;52.776;6.968;2022-12-18T05:58:37;-6.10;99.90
56725;DHT22;42608;52.776;6.968;2022-12-18T06:01:08;-6.10;99.90
56725;DHT22;42608;52.776;6.968;2022-12-18T06:03:33;-6.10;99.90
56725;DHT22;42608;52.776;6.968;2022-12-18T06:05:59;-6.20;99.90
56725;DHT22;42608;52.776;6.968;2022-12-18T06:08:25;-6.10;99.90
56725;DHT22;42608;52.776;6.968;2022-12-18T06:10:51;-6.20;99.90
56725;DHT22;42608;52.776;6.968;2022-12-18T06:13:18;-6.20;99.90
56725;DHT22;42608;52.776;6.968;2022-12-18T06:15:43;-6.20;99.90
56725;DHT22;42608;52.776;6.968;2022-12-18T06:18:09;-6.30;99.90
56725;DHT22;42608;52.776;6.968;2022-12-18T06:20:34;-6.30;99.90
56725;DHT22;42608;52.776;6.968;2022-12-18T06:23:02;-6.30;99.90
56725;DHT22;42608;52.776;6.968;2022-12-18T06:25:28;-6.40;99.90
56725;DHT22;42608;52.776;6.968;2022-12-18T06:27:53;-6.30;99.90
56725;DHT22;42608;52.776;6.968;2022-12-18T06:30:19;-6.40;99.90
56725;DHT22;42608;52.776;6.968;2022-12-18T06:32:45;-6.40;99.90
56725;DHT22;42608;52.776;6.968;2022-12-18T06:35:10;-6.40;99.90
56725;DHT22;42608;52.776;6.968;2022-12-18T06:37:36;-6.40;99.90
56725;DHT22;42608;52.776;6.968;2022-12-18T06:40:01;-6.40;99.90
56725;DHT22;42608;52.776;6.968;2022-12-18T06:42:28;-6.40;99.90
56725;DHT22;42608;52.776;6.968;2022-12-18T06:44:53;-6.40;99.90
56725;DHT22;42608;52.776;6.968;2022-12-18T06:47:19;-6.40;99.90
56725;DHT22;42608;52.776;6.968;2022-12-18T06:49:44;-6.40;99.90
56725;DHT22;42608;52.776;6.968;2022-12-18T06:52:10;-6.40;99.90
56725;DHT22;42608;52.776;6.968;2022-12-18T06:54:36;-6.30;99.90
56725;DHT22;42608;52.776;6.968;2022-12-18T06:57:01;-6.30;99.90
56725;DHT22;42608;52.776;6.968;2022-12-18T06:59:27;-6.30;99.90
56725;DHT22;42608;52.776;6.968;2022-12-18T07:01:53;-6.30;99.90
56725;DHT22;42608;52.776;6.968;2022-12-18T07:04:18;-6.30;99.90
56725;DHT22;42608;52.776;6.968;2022-12-18T07:06:44;-6.30;99.90
56725;DHT22;42608;52.776;6.968;2022-12-18T07:09:09;-6.30;99.90
56725;DHT22;42608;52.776;6.968;2022-12-18T07:11:35;-6.30;99.90
56725;DHT22;42608;52.776;6.968;2022-12-18T07:14:00;-6.30;99.90
56725;DHT22;42608;52.776;6.968;2022-12-18T07:16:26;-6.30;99.90
56725;DHT22;42608;52.776;6.968;2022-12-18T07:18:54;-6.30;99.90
56725;DHT22;42608;52.776;6.968;2022-12-18T07:21:20;-6.40;99.90
56725;DHT22;42608;52.776;6.968;2022-12-18T07:23:45;-6.40;99.90
56725;DHT22;42608;52.776;6.968;2022-12-18T07:26:13;-6.40;99.90
56725;DHT22;42608;52.776;6.968;2022-12-18T07:28:40;-6.40;99.90
56725;DHT22;42608;52.776;6.968;2022-12-18T07:31:06;-6.40;99.90
56725;DHT22;42608;52.776;6.968;2022-12-18T07:33:33;-6.30;99.90
56725;DHT22;42608;52.776;6.968;2022-12-18T07:35:59;-6.40;99.90
56725;DHT22;42608;52.776;6.968;2022-12-18T07:38:24;-6.30;99.90
56725;DHT22;42608;52.776;6.968;2022-12-18T07:40:50;-6.30;99.90
56725;DHT22;42608;52.776;6.968;2022-12-18T07:43:15;-6.40;99.90
56725;DHT22;42608;52.776;6.968;2022-12-18T07:45:41;-6.40;99.90
56725;DHT22;42608;52.776;6.968;2022-12-18T07:48:07;-6.30;99.90
56725;DHT22;42608;52.776;6.968;2022-12-18T07:50:32;-6.30;99.90
56725;DHT22;42608;52.776;6.968;2022-12-18T07:52:58;-6.30;99.90
56725;DHT22;42608;52.776;6.968;2022-12-18T07:55:24;-6.30;99.90
56725;DHT22;42608;52.776;6.968;2022-12-18T07:57:49;-6.20;99.90
56725;DHT22;42608;52.776;6.968;2022-12-18T08:00:15;-6.20;99.90
56725;DHT22;42608;52.776;6.968;2022-12-18T08:02:41;-6.20;99.90
56725;DHT22;42608;52.776;6.968;2022-12-18T08:05:07;-6.20;99.90
56725;DHT22;42608;52.776;6.968;2022-12-18T08:07:33;-6.20;99.90
56725;DHT22;42608;52.776;6.968;2022-12-18T08:09:58;-6.20;99.90
56725;DHT22;42608;52.776;6.968;2022-12-18T08:12:24;-6.20;99.90
56725;DHT22;42608;52.776;6.968;2022-12-18T08:14:49;-6.20;99.90
56725;DHT22;42608;52.776;6.968;2022-12-18T08:17:15;-6.20;99.90
56725;DHT22;42608;52.776;6.968;2022-12-18T08:19:40;-6.10;99.90
56725;DHT22;42608;52.776;6.968;2022-12-18T08:22:06;-6.10;99.90
56725;DHT22;42608;52.776;6.968;2022-12-18T08:24:31;-6.10;99.90
56725;DHT22;42608;52.776;6.968;2022-12-18T08:26:57;-6.10;99.90
56725;DHT22;42608;52.776;6.968;2022-12-18T08:29:23;-6.00;99.90
56725;DHT22;42608;52.776;6.968;2022-12-18T08:31:48;-6.00;99.90
56725;DHT22;42608;52.776;6.968;2022-12-18T08:34:14;-6.00;99.90
56725;DHT22;42608;52.776;6.968;2022-12-18T08:36:40;-6.00;99.90
56725;DHT22;42608;52.776;6.968;2022-12-18T08:39:05;-5.90;99.90
56725;DHT22;42608;52.776;6.968;2022-12-18T08:41:31;-5.90;99.90
56725;DHT22;42608;52.776;6.968;2022-12-18T08:43:56;-5.90;99.90
56725;DHT22;42608;52.776;6.968;2022-12-18T08:46:41;-5.80;99.90
56725;DHT22;42608;52.776;6.968;2022-12-18T08:49:08;-5.80;99.90
56725;DHT22;42608;52.776;6.968;2022-12-18T08:51:34;-5.80;99.90
56725;DHT22;42608;52.776;6.968;2022-12-18T08:54:00;-5.70;99.90
56725;DHT22;42608;52.776;6.968;2022-12-18T08:56:25;-5.70;99.90
56725;DHT22;42608;52.776;6.968;2022-12-18T08:58:52;-5.60;99.90
56725;DHT22;42608;52.776;6.968;2022-12-18T09:01:17;-5.60;99.90
56725;DHT22;42608;52.776;6.968;2022-12-18T09:03:43;-5.50;99.90
56725;DHT22;42608;52.776;6.968;2022-12-18T09:06:08;-5.50;99.90
56725;DHT22;42608;52.776;6.968;2022-12-18T09:08:34;-5.50;99.90
56725;DHT22;42608;52.776;6.968;2022-12-18T09:11:00;-5.40;99.90
56725;DHT22;42608;52.776;6.968;2022-12-18T09:13:25;-5.40;99.90
56725;DHT22;42608;52.776;6.968;2022-12-18T09:15:52;-5.30;99.90
56725;DHT22;42608;52.776;6.968;2022-12-18T09:18:19;-5.30;99.90
56725;DHT22;42608;52.776;6.968;2022-12-18T09:20:45;-5.20;99.90
56725;DHT22;42608;52.776;6.968;2022-12-18T09:23:10;-5.10;99.90
56725;DHT22;42608;52.776;6.968;2022-12-18T09:25:36;-5.10;99.90
56725;DHT22;42608;52.776;6.968;2022-12-18T09:28:06;-5.10;99.90
56725;DHT22;42608;52.776;6.968;2022-12-18T09:30:32;-5.00;99.90
56725;DHT22;42608;52.776;6.968;2022-12-18T09:32:59;-5.00;99.90
56725;DHT22;42608;52.776;6.968;2022-12-18T09:35:25;-4.90;99.90
56725;DHT22;42608;52.776;6.968;2022-12-18T09:37:51;-4.80;99.90
56725;DHT22;42608;52.776;6.968;2022-12-18T09:40:18;-4.80;99.90
56725;DHT22;42608;52.776;6.968;2022-12-18T09:42:45;-4.70;99.90
56725;DHT22;42608;52.776;6.968;2022-12-18T09:45:13;-4.70;99.90
56725;DHT22;42608;52.776;6.968;2022-12-18T09:47:40;-4.60;99.90
56725;DHT22;42608;52.776;6.968;2022-12-18T09:50:27;-4.60;99.90
56725;DHT22;42608;52.776;6.968;2022-12-18T09:52:55;-4.50;99.90
56725;DHT22;42608;52.776;6.968;2022-12-18T09:55:24;-4.50;99.90
56725;DHT22;42608;52.776;6.968;2022-12-18T09:57:52;-4.40;99.90
56725;DHT22;42608;52.776;6.968;2022-12-18T10:00:22;-4.40;99.90
56725;DHT22;42608;52.776;6.968;2022-12-18T10:02:48;-4.30;99.90
56725;DHT22;42608;52.776;6.968;2022-12-18T10:05:16;-4.30;99.90
56725;DHT22;42608;52.776;6.968;2022-12-18T10:07:55;-4.20;99.90
56725;DHT22;42608;52.776;6.968;2022-12-18T10:10:38;-4.10;99.90
56725;DHT22;42608;52.776;6.968;2022-12-18T10:13:26;-4.10;99.90
56725;DHT22;42608;52.776;6.968;2022-12-18T10:16:16;-4.00;99.90
56725;DHT22;42608;52.776;6.968;2022-12-18T10:21:30;-3.90;99.90
56725;DHT22;42608;52.776;6.968;2022-12-18T10:24:15;-3.80;99.90
56725;DHT22;42608;52.776;6.968;2022-12-18T10:26:44;-3.70;99.90
56725;DHT22;42608;52.776;6.968;2022-12-18T10:29:14;-3.70;99.90
56725;DHT22;42608;52.776;6.968;2022-12-18T10:31:43;-3.60;99.90
56725;DHT22;42608;52.776;6.968;2022-12-18T10:34:12;-3.60;99.90
56725;DHT22;42608;52.776;6.968;2022-12-18T10:36:38;-3.50;99.90
56725;DHT22;42608;52.776;6.968;2022-12-18T10:39:19;-3.50;99.90
56725;DHT22;42608;52.776;6.968;2022-12-18T10:41:50;-3.50;99.90
56725;DHT22;42608;52.776;6.968;2022-12-18T10:44:31;-3.50;99.90
56725;DHT22;42608;52.776;6.968;2022-12-18T10:47:02;-3.40;99.90
56725;DHT22;42608;52.776;6.968;2022-12-18T10:49:30;-3.40;99.90
56725;DHT22;42608;52.776;6.968;2022-12-18T10:52:30;-3.40;99.90
56725;DHT22;42608;52.776;6.968;2022-12-18T10:54:52;-3.40;99.90
56725;DHT22;42608;52.776;6.968;2022-12-18T10:59:54;-3.30;99.90
56725;DHT22;42608;52.776;6.968;2022-12-18T11:04:52;-3.20;99.90
56725;DHT22;42608;52.776;6.968;2022-12-18T11:07:18;-3.20;99.90
56725;DHT22;42608;52.776;6.968;2022-12-18T11:10:01;-3.10;99.90
56725;DHT22;42608;52.776;6.968;2022-12-18T11:12:28;-3.10;99.90
56725;DHT22;42608;52.776;6.968;2022-12-18T11:14:54;-3.10;99.90
56725;DHT22;42608;52.776;6.968;2022-12-18T11:17:22;-3.10;99.90
56725;DHT22;42608;52.776;6.968;2022-12-18T11:19:56;-3.00;99.90
56725;DHT22;42608;52.776;6.968;2022-12-18T11:22:27;-3.00;99.90
56725;DHT22;42608;52.776;6.968;2022-12-18T11:25:04;-2.90;99.90
56725;DHT22;42608;52.776;6.968;2022-12-18T11:27:31;-2.90;99.90
56725;DHT22;42608;52.776;6.968;2022-12-18T11:35:21;-2.80;99.90
56725;DHT22;42608;52.776;6.968;2022-12-18T11:37:58;-2.80;99.90
56725;DHT22;42608;52.776;6.968;2022-12-18T11:40:33;-2.70;99.90
56725;DHT22;42608;52.776;6.968;2022-12-18T11:43:21;-2.70;99.90
56725;DHT22;42608;52.776;6.968;2022-12-18T11:45:56;-2.70;99.90
56725;DHT22;42608;52.776;6.968;2022-12-18T11:48:28;-2.60;99.90
56725;DHT22;42608;52.776;6.968;2022-12-18T11:50:56;-2.60;99.90
56725;DHT22;42608;52.776;6.968;2022-12-18T11:53:22;-2.50;99.90
56725;DHT22;42608;52.776;6.968;2022-12-18T11:55:56;-2.50;99.90
56725;DHT22;42608;52.776;6.968;2022-12-18T11:58:27;-2.50;99.90
56725;DHT22;42608;52.776;6.968;2022-12-18T12:01:38;-2.40;99.90
56725;DHT22;42608;52.776;6.968;2022-12-18T12:06:45;-2.40;99.90
56725;DHT22;42608;52.776;6.968;2022-12-18T12:09:27;-2.30;99.90
56725;DHT22;42608;52.776;6.968;2022-12-18T12:14:27;-2.30;99.90
56725;DHT22;42608;52.776;6.968;2022-12-18T12:16:57;-2.30;99.90
56725;DHT22;42608;52.776;6.968;2022-12-18T12:24:31;-2.20;99.90
56725;DHT22;42608;52.776;6.968;2022-12-18T12:30:00;-2.10;99.90
56725;DHT22;42608;52.776;6.968;2022-12-18T12:37:56;-2.10;99.90
56725;DHT22;42608;52.776;6.968;2022-12-18T12:40:18;-2.00;99.90
56725;DHT22;42608;52.776;6.968;2022-12-18T12:42:46;-2.00;99.90
56725;DHT22;42608;52.776;6.968;2022-12-18T12:45:42;-2.00;99.90
56725;DHT22;42608;52.776;6.968;2022-12-18T12:48:15;-1.90;99.90
56725;DHT22;42608;52.776;6.968;2022-12-18T12:50:41;-1.90;99.90
56725;DHT22;42608;52.776;6.968;2022-12-18T12:53:07;-1.90;99.90
56725;DHT22;42608;52.776;6.968;2022-12-18T12:55:37;-1.90;99.90
56725;DHT22;42608;52.776;6.968;2022-12-18T12:58:07;-1.90;99.90
56725;DHT22;42608;52.776;6.968;2022-12-18T13:00:45;-1.80;99.90
56725;DHT22;42608;52.776;6.968;2022-12-18T13:03:31;-1.80;99.90
56725;DHT22;42608;52.776;6.968;2022-12-18T13:06:02;-1.80;99.90
56725;DHT22;42608;52.776;6.968;2022-12-18T13:08:34;-1.70;99.90
56725;DHT22;42608;52.776;6.968;2022-12-18T13:14:23;-1.70;99.90
56725;DHT22;42608;52.776;6.968;2022-12-18T13:16:49;-1.70;99.90
56725;DHT22;42608;52.776;6.968;2022-12-18T13:19:21;-1.70;99.90
56725;DHT22;42608;52.776;6.968;2022-12-18T13:21:52;-1.60;99.90
56725;DHT22;42608;52.776;6.968;2022-12-18T13:24:36;-1.60;99.90
56725;DHT22;42608;52.776;6.968;2022-12-18T13:27:14;-1.60;99.90
56725;DHT22;42608;52.776;6.968;2022-12-18T13:29:47;-1.60;99.90
56725;DHT22;42608;52.776;6.968;2022-12-18T13:32:19;-1.60;99.90
56725;DHT22;42608;52.776;6.968;2022-12-18T13:34:45;-1.60;99.90
56725;DHT22;42608;52.776;6.968;2022-12-18T13:39:52;-1.60;99.90
56725;DHT22;42608;52.776;6.968;2022-12-18T13:45:01;-1.50;99.90
56725;DHT22;42608;52.776;6.968;2022-12-18T13:47:47;-1.60;99.90
56725;DHT22;42608;52.776;6.968;2022-12-18T13:50:23;-1.50;99.90
56725;DHT22;42608;52.776;6.968;2022-12-18T13:52:49;-1.50;99.90
56725;DHT22;42608;52.776;6.968;2022-12-18T13:55:16;-1.50;99.90
56725;DHT22;42608;52.776;6.968;2022-12-18T13:57:43;-1.50;99.90
56725;DHT22;42608;52.776;6.968;2022-12-18T14:00:19;-1.50;99.90
56725;DHT22;42608;52.776;6.968;2022-12-18T14:02:49;-1.50;99.90
56725;DHT22;42608;52.776;6.968;2022-12-18T14:05:24;-1.60;99.90
56725;DHT22;42608;52.776;6.968;2022-12-18T14:07:50;-1.50;99.90
56725;DHT22;42608;52.776;6.968;2022-12-18T14:10:17;-1.60;99.90
56725;DHT22;42608;52.776;6.968;2022-12-18T14:12:49;-1.50;99.90
56725;DHT22;42608;52.776;6.968;2022-12-18T14:17:50;-1.60;99.90
56725;DHT22;42608;52.776;6.968;2022-12-18T14:20:16;-1.60;99.90
56725;DHT22;42608;52.776;6.968;2022-12-18T14:22:45;-1.60;99.90
56725;DHT22;42608;52.776;6.968;2022-12-18T14:27:37;-1.60;99.90
56725;DHT22;42608;52.776;6.968;2022-12-18T14:30:18;-1.60;99.90
56725;DHT22;42608;52.776;6.968;2022-12-18T14:33:05;-1.60;99.90
56725;DHT22;42608;52.776;6.968;2022-12-18T14:35:32;-1.70;99.90
56725;DHT22;42608;52.776;6.968;2022-12-18T14:40:36;-1.70;99.90
56725;DHT22;42608;52.776;6.968;2022-12-18T14:43:02;-1.70;99.90
56725;DHT22;42608;52.776;6.968;2022-12-18T14:47:59;-1.70;99.90
56725;DHT22;42608;52.776;6.968;2022-12-18T14:50:25;-1.70;99.90
56725;DHT22;42608;52.776;6.968;2022-12-18T14:52:51;-1.70;99.90
56725;DHT22;42608;52.776;6.968;2022-12-18T14:55:17;-1.70;99.90
56725;DHT22;42608;52.776;6.968;2022-12-18T14:57:43;-1.70;99.90
56725;DHT22;42608;52.776;6.968;2022-12-18T15:00:20;-1.70;99.90
56725;DHT22;42608;52.776;6.968;2022-12-18T15:02:50;-1.70;99.90
56725;DHT22;42608;52.776;6.968;2022-12-18T15:05:18;-1.70;99.90
56725;DHT22;42608;52.776;6.968;2022-12-18T15:07:48;-1.70;99.90
56725;DHT22;42608;52.776;6.968;2022-12-18T15:10:16;-1.70;99.90
56725;DHT22;42608;52.776;6.968;2022-12-18T15:12:48;-1.70;99.90
56725;DHT22;42608;52.776;6.968;2022-12-18T15:17:58;-1.70;99.90
56725;DHT22;42608;52.776;6.968;2022-12-18T15:20:24;-1.70;99.90
56725;DHT22;42608;52.776;6.968;2022-12-18T15:22:49;-1.70;99.90
56725;DHT22;42608;52.776;6.968;2022-12-18T15:25:27;-1.70;99.90
56725;DHT22;42608;52.776;6.968;2022-12-18T15:27:55;-1.70;99.90
56725;DHT22;42608;52.776;6.968;2022-12-18T15:30:21;-1.70;99.90
56725;DHT22;42608;52.776;6.968;2022-12-18T15:32:48;-1.70;99.90
56725;DHT22;42608;52.776;6.968;2022-12-18T15:37:39;-1.70;99.90
56725;DHT22;42608;52.776;6.968;2022-12-18T15:40:06;-1.70;99.90
56725;DHT22;42608;52.776;6.968;2022-12-18T15:42:32;-1.70;99.90
56725;DHT22;42608;52.776;6.968;2022-12-18T15:45:16;-1.70;99.90
56725;DHT22;42608;52.776;6.968;2022-12-18T15:47:42;-1.70;99.90
56725;DHT22;42608;52.776;6.968;2022-12-18T15:50:07;-1.70;99.90
56725;DHT22;42608;52.776;6.968;2022-12-18T15:52:35;-1.70;99.90
56725;DHT22;42608;52.776;6.968;2022-12-18T15:55:01;-1.70;99.90
56725;DHT22;42608;52.776;6.968;2022-12-18T15:57:46;-1.70;99.90
56725;DHT22;42608;52.776;6.968;2022-12-18T16:00:11;-1.70;99.90
56725;DHT22;42608;52.776;6.968;2022-12-18T16:02:37;-1.60;99.90
56725;DHT22;42608;52.776;6.968;2022-12-18T16:05:03;-1.60;99.90
56725;DHT22;42608;52.776;6.968;2022-12-18T16:07:30;-1.60;99.90
56725;DHT22;42608;52.776;6.968;2022-12-18T16:09:55;-1.60;99.90
56725;DHT22;42608;52.776;6.968;2022-12-18T16:12:22;-1.60;99.90
56725;DHT22;42608;52.776;6.968;2022-12-18T16:14:49;-1.60;99.90
56725;DHT22;42608;52.776;6.968;2022-12-18T16:17:15;-1.60;99.90
56725;DHT22;42608;52.776;6.968;2022-12-18T16:19:40;-1.60;99.90
56725;DHT22;42608;52.776;6.968;2022-12-18T16:22:14;-1.60;99.90
56725;DHT22;42608;52.776;6.968;2022-12-18T16:24:40;-1.60;99.90
56725;DHT22;42608;52.776;6.968;2022-12-18T16:27:08;-1.60;99.90
56725;DHT22;42608;52.776;6.968;2022-12-18T16:29:35;-1.60;99.90
56725;DHT22;42608;52.776;6.968;2022-12-18T16:32:01;-1.60;99.90
56725;DHT22;42608;52.776;6.968;2022-12-18T16:34:30;-1.60;99.90
56725;DHT22;42608;52.776;6.968;2022-12-18T16:37:00;-1.60;99.90
56725;DHT22;42608;52.776;6.968;2022-12-18T16:39:26;-1.60;99.90
56725;DHT22;42608;52.776;6.968;2022-12-18T16:41:52;-1.60;99.90
56725;DHT22;42608;52.776;6.968;2022-12-18T16:44:18;-1.60;99.90
56725;DHT22;42608;52.776;6.968;2022-12-18T16:46:43;-1.50;99.90
56725;DHT22;42608;52.776;6.968;2022-12-18T16:49:11;-1.50;99.90
56725;DHT22;42608;52.776;6.968;2022-12-18T16:51:37;-1.60;99.90
56725;DHT22;42608;52.776;6.968;2022-12-18T16:54:03;-1.60;99.90
56725;DHT22;42608;52.776;6.968;2022-12-18T16:56:29;-1.50;99.90
56725;DHT22;42608;52.776;6.968;2022-12-18T16:58:56;-1.50;99.90
56725;DHT22;42608;52.776;6.968;2022-12-18T17:01:22;-1.50;99.90